Time;durP1;ratioP1;P1;durP2;ratioP2;P2;SDS_P1;SDS_P2;PMS_P1;PMS_P2;Temp;Humidity;BMP_temperature;BMP_pressure;BME280_temperature;BME280_humidity;BME280_pressure;Samples;Min_cycle;Max_cycle;Signal;HPM_P1;HPM_P2
2023/05/18 00:01:02;;;;;;;10.80;5.45;;;;;;;7.14;79.30;102573.22;5061859;28;20615;-81
2023/05/18 00:03:28;;;;;;;8.60;4.68;;;;;;;7.14;79.56;102572.34;5033474;28;20086;-81
2023/05/18 00:05:56;;;;;;;9.43;4.70;;;;;;;7.16;79.61;102576.72;5061435;28;20028;-82
2023/05/18 00:08:22;;;;;;;10.55;4.82;;;;;;;7.12;79.86;102572.34;5051165;28;20156;-82
2023/05/18 00:10:47;;;;;;;14.10;5.18;;;;;;;7.04;80.21;102570.66;5052299;28;20116;-82
2023/05/18 00:13:12;;;;;;;9.90;4.32;;;;;;;7.02;80.72;102575.09;5057316;28;20072;-81
2023/05/18 00:15:38;;;;;;;9.82;4.70;;;;;;;6.94;81.49;102572.53;5039585;28;20028;-81
2023/05/18 00:18:03;;;;;;;12.18;4.85;;;;;;;6.96;81.49;102578.66;5049047;28;20032;-81
2023/05/18 00:20:28;;;;;;;9.60;4.82;;;;;;;6.82;81.14;102578.78;5061401;28;20028;-81
2023/05/18 00:22:54;;;;;;;9.20;4.28;;;;;;;6.90;81.78;102576.09;5054938;28;20023;-81
2023/05/18 00:25:19;;;;;;;8.43;4.97;;;;;;;6.87;81.89;102579.63;5049159;28;20104;-81
2023/05/18 00:27:45;;;;;;;8.50;4.63;;;;;;;6.86;81.27;102577.88;5048633;28;20131;-81
2023/05/18 00:30:11;;;;;;;9.63;5.00;;;;;;;6.86;81.42;102577.00;5052556;28;20508;-80
2023/05/18 00:32:36;;;;;;;8.60;4.60;;;;;;;6.80;81.06;102575.25;5048584;28;20043;-80
2023/05/18 00:35:02;;;;;;;12.35;5.15;;;;;;;6.72;81.56;102574.44;5057231;28;20025;-81
2023/05/18 00:37:27;;;;;;;8.90;4.82;;;;;;;6.79;81.87;102575.28;5051143;28;20048;-79
2023/05/18 00:39:52;;;;;;;11.15;5.10;;;;;;;6.74;81.97;102577.97;5031021;28;20115;-81
2023/05/18 00:42:18;;;;;;;8.07;4.72;;;;;;;6.76;81.15;102589.41;5055081;28;20513;-80
2023/05/18 00:44:43;;;;;;;11.27;4.53;;;;;;;6.62;82.45;102578.94;5057221;28;20021;-81
2023/05/18 00:47:10;;;;;;;10.90;4.63;;;;;;;6.67;82.28;102582.41;5054918;28;20063;-80
2023/05/18 00:49:35;;;;;;;9.10;4.63;;;;;;;6.62;81.97;102580.69;5054618;28;20024;-81
2023/05/18 00:52:04;;;;;;;10.25;4.72;;;;;;;6.53;82.52;102588.69;5056702;28;20043;-81
2023/05/18 00:54:32;;;;;;;9.90;4.70;;;;;;;6.46;82.74;102590.50;5049069;28;20032;-82
2023/05/18 00:57:00;;;;;;;8.98;4.50;;;;;;;6.47;82.44;102579.88;5060469;28;20112;-82
2023/05/18 00:59:27;;;;;;;9.48;4.60;;;;;;;6.49;82.49;102583.41;5044555;28;20021;-82
2023/05/18 01:01:53;;;;;;;9.40;4.80;;;;;;;6.39;82.27;102591.41;5057906;28;20182;-81
2023/05/18 01:04:20;;;;;;;9.93;4.40;;;;;;;6.47;82.52;102579.00;5054922;28;20112;-81
2023/05/18 01:06:46;;;;;;;8.55;4.45;;;;;;;6.36;82.50;102587.03;5053349;28;20116;-81
2023/05/18 01:09:13;;;;;;;7.78;4.50;;;;;;;6.28;82.78;102582.66;5057924;28;20021;-81
2023/05/18 01:12:12;;;;;;;7.32;4.30;;;;;;;6.29;82.65;102587.94;5053752;28;20045;-81
2023/05/18 01:14:49;;;;;;;8.40;4.68;;;;;;;6.28;83.43;102595.91;5048601;28;20064;-81
2023/05/18 01:17:42;;;;;;;9.52;4.50;;;;;;;6.28;82.72;102591.47;5051824;28;20366;-82
2023/05/18 01:20:44;;;;;;;7.97;4.40;;;;;;;6.29;82.12;102601.16;5056647;28;20032;-81
2023/05/18 01:23:51;;;;;;;11.18;4.80;;;;;;;6.26;82.18;102595.00;4954194;28;20377;-81
2023/05/18 01:26:23;;;;;;;9.18;4.57;;;;;;;6.20;82.94;102596.81;4881988;29;20080;-81
2023/05/18 01:28:50;;;;;;;10.25;4.60;;;;;;;6.15;83.27;102597.72;4879636;29;20089;-81
2023/05/18 01:31:16;;;;;;;8.32;4.20;;;;;;;6.19;83.22;102595.06;4881390;29;20052;-81
2023/05/18 01:33:45;;;;;;;9.80;4.63;;;;;;;6.16;83.84;102589.75;4874286;29;20163;-81
2023/05/18 01:36:10;;;;;;;8.60;4.57;;;;;;;6.13;83.43;102588.91;4882171;29;20064;-81
2023/05/18 01:38:37;;;;;;;8.05;4.72;;;;;;;6.05;83.96;102595.97;4884198;29;20151;-81
2023/05/18 01:41:23;;;;;;;9.27;4.25;;;;;;;6.07;83.80;102597.75;4884649;29;20158;-80
2023/05/18 01:43:56;;;;;;;9.57;4.50;;;;;;;6.02;84.07;102606.56;4885436;29;20614;-80
2023/05/18 01:46:35;;;;;;;8.32;4.28;;;;;;;5.97;84.37;102603.94;4893838;29;20119;-80
2023/05/18 01:49:09;;;;;;;10.45;4.43;;;;;;;5.88;84.77;102604.81;4883503;29;20447;-81
2023/05/18 01:51:40;;;;;;;9.50;4.53;;;;;;;5.81;85.03;102603.09;4880825;29;20249;-81
2023/05/18 01:54:08;;;;;;;9.55;4.63;;;;;;;5.80;85.32;102601.31;4880553;29;20298;-81
2023/05/18 01:56:35;;;;;;;12.05;4.93;;;;;;;5.75;85.44;102595.16;4893826;29;20051;-80
2023/05/18 01:59:01;;;;;;;9.40;5.00;;;;;;;5.71;85.78;102596.06;4957634;28;20416;-81
2023/05/18 02:01:27;;;;;;;7.72;4.95;;;;;;;5.72;85.85;102597.81;5048863;28;20032;-81
2023/05/18 02:03:52;;;;;;;7.47;4.78;;;;;;;5.58;86.15;102595.22;5046567;28;20040;-81
2023/05/18 02:06:17;;;;;;;9.05;4.68;;;;;;;5.62;86.57;102588.16;5039172;28;20040;-81
2023/05/18 02:08:43;;;;;;;9.95;5.25;;;;;;;5.68;86.69;102588.13;5054120;28;20102;-81
2023/05/18 02:11:08;;;;;;;7.60;5.00;;;;;;;5.64;86.42;102591.66;5033071;28;20048;-82
2023/05/18 02:13:34;;;;;;;9.13;5.15;;;;;;;5.66;86.77;102587.28;5036649;28;20056;-81
2023/05/18 02:15:59;;;;;;;8.55;4.60;;;;;;;5.62;86.85;102588.16;5041106;28;20122;-79
2023/05/18 02:18:25;;;;;;;8.98;4.72;;;;;;;5.60;86.65;102587.28;5056390;28;20052;-80
2023/05/18 02:20:58;;;;;;;10.23;5.03;;;;;;;5.61;86.80;102589.94;5054578;28;20167;-81
2023/05/18 02:23:24;;;;;;;8.90;5.18;;;;;;;5.54;87.30;102584.66;5050689;28;20043;-80
2023/05/18 02:25:50;;;;;;;8.00;5.00;;;;;;;5.54;87.24;102580.25;5052929;28;20029;-81
2023/05/18 02:28:15;;;;;;;9.43;5.20;;;;;;;5.57;87.49;102582.91;5049461;28;20036;-81
2023/05/18 02:30:41;;;;;;;10.27;5.10;;;;;;;5.52;87.19;102573.19;5052714;28;20044;-81
2023/05/18 02:33:07;;;;;;;11.35;5.32;;;;;;;5.51;87.24;102582.91;5051760;28;20029;-81
2023/05/18 02:35:34;;;;;;;10.23;4.95;;;;;;;5.58;87.28;102589.06;5045668;28;20546;-81
2023/05/18 02:37:59;;;;;;;9.57;4.85;;;;;;;5.49;87.42;102572.34;5054668;28;20036;-81
2023/05/18 02:40:25;;;;;;;10.57;5.25;;;;;;;5.49;87.24;102574.13;5048402;28;20077;-81
2023/05/18 02:42:50;;;;;;;10.75;4.88;;;;;;;5.46;87.42;102572.34;5052299;28;20021;-80
2023/05/18 02:45:15;;;;;;;7.72;4.40;;;;;;;5.50;87.23;102576.75;5056972;28;20326;-81
2023/05/18 02:47:42;;;;;;;9.95;5.32;;;;;;;5.51;86.93;102577.63;5051041;28;20028;-81
2023/05/18 02:50:08;;;;;;;11.60;5.45;;;;;;;5.49;87.42;102569.72;5053701;28;20032;-80
2023/05/18 02:52:34;;;;;;;12.68;5.72;;;;;;;5.59;87.29;102574.97;5051661;28;20040;-80
2023/05/18 02:54:59;;;;;;;10.85;5.03;;;;;;;5.50;87.10;102571.47;5038155;28;20025;-80
2023/05/18 02:57:25;;;;;;;11.45;5.15;;;;;;;5.53;87.31;102569.72;5037628;28;20028;-80
2023/05/18 02:59:50;;;;;;;10.23;4.90;;;;;;;5.47;87.15;102571.44;5033415;28;20028;-80
2023/05/18 03:02:16;;;;;;;10.60;5.13;;;;;;;5.49;87.68;102569.72;5059713;28;20372;-81
2023/05/18 03:04:42;;;;;;;8.50;4.97;;;;;;;5.40;87.37;102569.72;5033155;28;20358;-80
2023/05/18 03:07:09;;;;;;;10.75;5.60;;;;;;;5.37;87.82;102577.66;5059270;28;20103;-81
2023/05/18 03:09:35;;;;;;;8.27;5.28;;;;;;;5.37;87.91;102572.38;5041210;28;20025;-80
2023/05/18 03:12:00;;;;;;;11.52;5.00;;;;;;;5.32;87.99;102566.22;5051499;28;20048;-81
2023/05/18 03:14:25;;;;;;;8.93;4.63;;;;;;;5.36;87.81;102570.63;5057563;28;20385;-81
2023/05/18 03:16:53;;;;;;;9.02;4.88;;;;;;;5.30;88.03;102580.28;5053919;28;20089;-80
2023/05/18 03:19:19;;;;;;;9.30;5.38;;;;;;;5.22;88.53;102568.00;5044894;28;20029;-81
2023/05/18 03:21:44;;;;;;;11.30;5.32;;;;;;;5.22;88.70;102572.38;5047463;28;20718;-81
2023/05/18 03:24:13;;;;;;;10.10;4.97;;;;;;;5.17;88.69;102572.38;5038638;28;20028;-81
2023/05/18 03:26:40;;;;;;;9.10;5.20;;;;;;;5.19;88.79;102577.69;5055212;28;20071;-81
2023/05/18 03:29:06;;;;;;;9.90;5.18;;;;;;;5.16;88.52;102570.63;5036509;28;20042;-81
2023/05/18 03:31:31;;;;;;;8.40;5.30;;;;;;;5.16;89.03;102575.91;5058245;28;20020;-81
2023/05/18 03:33:57;;;;;;;13.27;5.45;;;;;;;5.07;89.46;102575.06;5058033;28;20037;-80
2023/05/18 03:36:26;;;;;;;10.48;5.60;;;;;;;5.04;89.73;102569.75;5063562;28;20078;-80
2023/05/18 03:38:53;;;;;;;10.60;6.22;;;;;;;5.13;90.40;102570.63;5045958;28;20449;-80
2023/05/18 03:41:18;;;;;;;11.63;5.63;;;;;;;5.10;89.63;102581.22;5055725;28;20024;-80
2023/05/18 03:43:44;;;;;;;10.15;5.32;;;;;;;5.16;89.58;102575.03;5049259;28;20111;-81
2023/05/18 03:46:09;;;;;;;8.35;5.13;;;;;;;5.09;89.93;102575.91;5054966;28;20489;-81
2023/05/18 03:48:34;;;;;;;10.57;5.40;;;;;;;5.09;90.19;102578.56;5056603;28;20063;-82
2023/05/18 03:51:00;;;;;;;12.23;5.60;;;;;;;5.16;89.58;102581.19;5032007;28;20062;-80
2023/05/18 03:53:26;;;;;;;10.60;5.88;;;;;;;5.11;89.58;102571.53;5054592;28;20029;-80
2023/05/18 03:55:51;;;;;;;9.57;5.55;;;;;;;5.07;89.86;102578.56;5056536;28;20115;-82
2023/05/18 03:58:18;;;;;;;8.70;5.38;;;;;;;5.02;90.06;102576.78;5059091;28;20258;-82
2023/05/18 04:00:44;;;;;;;9.52;5.38;;;;;;;5.04;90.29;102581.19;5056408;28;20078;-82
2023/05/18 04:03:13;;;;;;;11.90;5.80;;;;;;;5.04;90.58;102578.56;5055149;28;20024;-81
2023/05/18 04:05:42;;;;;;;11.52;5.75;;;;;;;4.96;90.56;102581.19;5061648;28;20032;-82
2023/05/18 04:08:07;;;;;;;9.30;5.40;;;;;;;5.04;90.78;102583.84;5047994;28;20059;-82
2023/05/18 04:10:33;;;;;;;9.45;5.45;;;;;;;5.07;90.53;102588.25;5049187;28;20033;-81
2023/05/18 04:12:58;;;;;;;12.25;6.28;;;;;;;5.03;90.67;102586.50;5038911;28;20045;-81
2023/05/18 04:15:23;;;;;;;11.35;6.20;;;;;;;5.10;90.49;102594.41;5040856;28;20495;-81
2023/05/18 04:17:50;;;;;;;10.35;6.18;;;;;;;5.00;90.86;102585.59;5037244;28;20031;-81
2023/05/18 04:20:15;;;;;;;12.18;6.22;;;;;;;5.04;90.89;102589.13;5042835;28;20027;-81
2023/05/18 04:22:45;;;;;;;13.57;6.15;;;;;;;5.01;91.04;102586.47;5038698;28;20025;-79
2023/05/18 04:25:11;;;;;;;13.43;5.80;;;;;;;5.06;90.96;102595.28;5060853;28;20039;-80
2023/05/18 04:27:37;;;;;;;14.75;5.88;;;;;;;5.08;90.83;102595.28;5035092;28;20124;-80
2023/05/18 04:30:03;;;;;;;14.02;5.55;;;;;;;5.13;91.04;102604.94;5049030;28;20036;-81
2023/05/18 04:32:29;;;;;;;13.88;5.95;;;;;;;5.22;90.87;102604.06;5056481;28;20033;-80
2023/05/18 04:34:57;;;;;;;10.18;6.20;;;;;;;5.28;90.45;102601.44;5060656;28;20017;-81
2023/05/18 04:37:23;;;;;;;10.70;5.80;;;;;;;5.28;90.59;102601.44;5050087;28;20048;-81
2023/05/18 04:39:49;;;;;;;11.73;5.50;;;;;;;5.33;90.09;102602.28;5047362;28;20021;-81
2023/05/18 04:42:17;;;;;;;11.80;6.07;;;;;;;5.28;90.12;102600.56;5028284;28;20057;-83
2023/05/18 04:44:43;;;;;;;10.27;5.80;;;;;;;5.32;90.19;102608.47;5049968;28;20050;-81
2023/05/18 04:47:08;;;;;;;9.07;5.32;;;;;;;5.30;90.12;102606.69;5035946;28;20041;-81
2023/05/18 04:49:34;;;;;;;14.25;5.82;;;;;;;5.43;89.84;102606.72;5059005;28;20028;-81
2023/05/18 04:51:59;;;;;;;10.73;5.72;;;;;;;5.48;90.28;102610.22;5054911;28;20032;-81
2023/05/18 04:54:29;;;;;;;8.80;5.72;;;;;;;5.57;89.61;102605.78;5052158;28;20389;-81
2023/05/18 04:56:55;;;;;;;9.50;5.72;;;;;;;5.52;88.74;102610.19;5048881;28;20400;-81
2023/05/18 04:59:25;;;;;;;8.50;5.35;;;;;;;5.49;88.96;102605.81;5037605;28;20434;-81
2023/05/18 05:01:54;;;;;;;10.93;5.80;;;;;;;5.63;88.67;102608.41;5058585;28;20027;-81
2023/05/18 05:04:20;;;;;;;10.95;5.80;;;;;;;5.64;88.34;102613.72;5056338;28;20106;-81
2023/05/18 05:06:46;;;;;;;11.18;5.82;;;;;;;5.66;88.11;102613.69;5058569;28;20078;-81
2023/05/18 05:09:14;;;;;;;10.43;5.78;;;;;;;5.61;87.86;102616.34;5052922;28;20024;-82
2023/05/18 05:11:40;;;;;;;10.38;5.35;;;;;;;5.57;87.92;102613.72;5047300;28;20048;-81
2023/05/18 05:14:06;;;;;;;12.90;6.40;;;;;;;5.61;88.35;102613.72;5061340;28;20028;-81
2023/05/18 05:16:32;;;;;;;11.18;5.88;;;;;;;5.64;88.31;102615.44;5057529;28;20052;-81
2023/05/18 05:18:58;;;;;;;11.32;5.45;;;;;;;5.69;88.42;102617.22;5056980;28;20034;-82
2023/05/18 05:21:24;;;;;;;10.02;5.47;;;;;;;5.74;87.49;102610.16;5037719;28;20035;-82
2023/05/18 05:23:49;;;;;;;10.57;5.32;;;;;;;5.76;87.84;102615.41;5056211;28;20054;-82
2023/05/18 05:26:14;;;;;;;12.02;5.35;;;;;;;5.86;87.31;102622.44;5054319;28;20039;-82
2023/05/18 05:28:40;;;;;;;11.35;5.68;;;;;;;6.01;87.47;102620.66;5056394;28;20036;-82
2023/05/18 05:31:05;;;;;;;10.35;6.00;;;;;;;5.95;86.77;102618.94;5024933;28;20029;-82
2023/05/18 05:33:30;;;;;;;12.45;5.97;;;;;;;5.98;86.49;102621.56;5054987;28;20497;-82
2023/05/18 05:35:56;;;;;;;10.45;5.70;;;;;;;6.11;86.68;102623.28;5054244;28;20583;-82
2023/05/18 05:38:21;;;;;;;10.18;5.93;;;;;;;6.13;85.46;102626.78;5057222;28;20032;-81
2023/05/18 05:40:46;;;;;;;9.23;5.85;;;;;;;6.26;85.83;102618.81;5056227;28;20277;-81
2023/05/18 05:43:12;;;;;;;10.55;6.32;;;;;;;6.32;85.32;102613.50;5058073;28;20608;-81
2023/05/18 05:45:38;;;;;;;10.65;6.40;;;;;;;6.34;84.84;102617.88;5055450;28;20339;-81
2023/05/18 05:48:03;;;;;;;8.38;5.63;;;;;;;6.48;85.06;102617.81;5053978;28;20051;-81
2023/05/18 05:50:28;;;;;;;12.23;6.35;;;;;;;6.42;84.28;102615.19;5042067;28;20619;-81
2023/05/18 05:52:54;;;;;;;10.75;6.22;;;;;;;6.52;84.61;102619.56;5048052;28;21398;-81
2023/05/18 05:55:20;;;;;;;11.77;6.35;;;;;;;6.56;83.73;102616.00;5058233;28;20099;-81
2023/05/18 05:57:45;;;;;;;8.68;6.15;;;;;;;6.69;83.60;102617.69;5049715;28;20025;-81
2023/05/18 06:00:11;;;;;;;13.55;7.03;;;;;;;6.79;83.20;102618.50;5051482;28;20026;-81
2023/05/18 06:02:37;;;;;;;13.70;6.35;;;;;;;6.80;82.65;102625.53;5037154;28;20566;-81
2023/05/18 06:05:03;;;;;;;12.82;6.40;;;;;;;6.85;82.06;102617.56;5034881;28;20124;-80
2023/05/18 06:07:29;;;;;;;12.02;6.50;;;;;;;6.85;82.06;102613.16;5056371;28;20029;-81
2023/05/18 06:09:54;;;;;;;11.63;6.57;;;;;;;6.91;81.91;102623.72;5059559;28;20025;-81
2023/05/18 06:12:20;;;;;;;11.63;6.70;;;;;;;6.92;81.54;102620.16;5051425;28;20041;-81
2023/05/18 06:14:46;;;;;;;12.18;6.95;;;;;;;7.12;81.16;102625.31;5056624;28;20115;-81
2023/05/18 06:17:11;;;;;;;9.65;5.88;;;;;;;7.29;80.49;102619.88;5059588;28;20032;-81
2023/05/18 06:19:36;;;;;;;12.27;6.50;;;;;;;7.32;79.37;102627.81;5046554;28;20033;-81
2023/05/18 06:22:02;;;;;;;9.15;6.00;;;;;;;7.47;79.16;102624.13;5050044;28;20039;-81
2023/05/18 06:24:28;;;;;;;10.95;6.40;;;;;;;7.61;78.96;102622.22;5057536;28;20043;-81
2023/05/18 06:26:53;;;;;;;11.15;6.70;;;;;;;7.70;78.49;102618.59;5051898;28;20117;-81
2023/05/18 06:29:20;;;;;;;12.70;6.95;;;;;;;7.81;77.07;102619.34;5051753;28;20059;-83
2023/05/18 06:31:45;;;;;;;10.52;6.43;;;;;;;7.95;77.93;102630.69;5057476;28;20036;-82
2023/05/18 06:34:10;;;;;;;11.18;6.43;;;;;;;8.05;77.71;102619.97;5053899;28;20095;-83
2023/05/18 06:36:37;;;;;;;9.75;6.20;;;;;;;8.21;76.97;102624.19;5058753;28;20028;-81
2023/05/18 06:39:04;;;;;;;11.57;6.60;;;;;;;8.38;75.67;102632.84;5043910;28;20021;-82
2023/05/18 06:41:29;;;;;;;11.95;6.53;;;;;;;8.67;74.73;102620.94;5032738;28;20401;-82
2023/05/18 06:43:55;;;;;;;9.88;6.22;;;;;;;8.94;74.24;102622.28;5050864;28;20033;-82
2023/05/18 06:46:22;;;;;;;13.70;6.75;;;;;;;9.04;72.30;102617.75;5046231;28;20020;-82
2023/05/18 06:48:47;;;;;;;11.15;6.30;;;;;;;9.28;72.39;102624.41;5055174;28;20079;-82
2023/05/18 06:51:15;;;;;;;11.25;6.25;;;;;;;9.70;69.70;102622.78;5053454;28;20021;-82
2023/05/18 06:53:40;;;;;;;8.90;5.90;;;;;;;10.03;70.02;102629.19;5041731;28;20443;-82
2023/05/18 06:56:06;;;;;;;13.65;6.50;;;;;;;10.07;67.21;102636.22;5049279;28;20029;-82
2023/05/18 06:58:31;;;;;;;13.95;5.90;;;;;;;10.39;66.58;102626.72;5032871;28;20044;-83
2023/05/18 07:00:56;;;;;;;12.05;6.72;;;;;;;10.65;65.88;102631.47;5041703;28;20442;-83
2023/05/18 07:03:22;;;;;;;13.23;5.70;;;;;;;10.67;64.56;102627.00;5045878;28;20036;-81
2023/05/18 07:05:47;;;;;;;11.48;6.20;;;;;;;10.77;63.79;102628.53;5045224;28;20017;-81
2023/05/18 07:08:12;;;;;;;8.82;5.35;;;;;;;10.81;63.16;102632.88;5045421;28;20104;-81
2023/05/18 07:10:38;;;;;;;12.10;6.13;;;;;;;10.98;63.23;102633.34;5057524;28;20112;-81
2023/05/18 07:13:03;;;;;;;11.90;6.35;;;;;;;11.10;61.10;102632.16;5054166;28;20060;-82
2023/05/18 07:15:28;;;;;;;13.18;5.88;;;;;;;11.22;61.92;102631.88;5045540;28;20226;-82
2023/05/18 07:17:55;;;;;;;10.80;5.63;;;;;;;11.70;60.80;102638.63;5046789;28;20040;-81
2023/05/18 07:20:20;;;;;;;9.35;5.13;;;;;;;11.96;59.43;102646.84;5058309;28;20029;-81
2023/05/18 07:22:45;;;;;;;11.13;5.53;;;;;;;12.14;57.75;102645.44;5057371;28;20024;-82
2023/05/18 07:25:10;;;;;;;9.45;5.07;;;;;;;12.62;56.83;102641.34;5041214;28;20079;-82
2023/05/18 07:27:36;;;;;;;14.55;5.90;;;;;;;12.83;55.17;102651.38;5037950;28;20105;-82
2023/05/18 07:30:01;;;;;;;10.10;5.25;;;;;;;13.27;54.76;102640.19;5061708;28;20066;-82
2023/05/18 07:32:26;;;;;;;8.85;4.80;;;;;;;13.63;53.16;102644.28;5036103;28;20028;-82
2023/05/18 07:34:52;;;;;;;9.93;5.30;;;;;;;13.86;52.20;102646.13;5059610;28;20104;-82
2023/05/18 07:37:17;;;;;;;11.07;5.10;;;;;;;14.10;50.60;102644.38;5052641;28;20167;-83
2023/05/18 07:39:43;;;;;;;6.97;4.68;;;;;;;14.52;50.97;102637.47;5049988;28;20078;-82
2023/05/18 07:42:08;;;;;;;8.93;4.60;;;;;;;14.78;49.00;102636.44;5059365;28;20465;-83
2023/05/18 07:44:33;;;;;;;11.40;4.60;;;;;;;15.37;49.20;102646.50;5060808;28;20471;-83
2023/05/18 07:46:59;;;;;;;10.52;5.00;;;;;;;15.58;47.69;102655.47;5044409;28;20086;-83
2023/05/18 07:49:24;;;;;;;8.52;4.38;;;;;;;15.58;46.50;102644.72;5027976;28;20031;-84
2023/05/18 07:51:50;;;;;;;12.07;4.90;;;;;;;15.80;46.64;102647.38;5034641;28;20036;-83
2023/05/18 07:54:16;;;;;;;11.15;4.82;;;;;;;15.93;45.17;102654.84;5057777;28;20124;-83
2023/05/18 07:56:42;;;;;;;10.35;4.68;;;;;;;16.32;45.17;102653.94;5044892;28;20603;-82
2023/05/18 07:59:08;;;;;;;7.18;4.25;;;;;;;16.59;44.33;102649.09;5043790;28;20029;-83
2023/05/18 08:01:34;;;;;;;9.18;4.63;;;;;;;16.54;43.33;102656.50;5036059;28;20031;-83
2023/05/18 08:04:00;;;;;;;12.30;4.95;;;;;;;16.48;43.55;102647.88;5039686;28;20123;-83
2023/05/18 08:06:25;;;;;;;13.18;4.80;;;;;;;16.66;42.74;102647.00;5044748;28;20055;-83
2023/05/18 08:08:51;;;;;;;10.77;4.45;;;;;;;16.93;42.18;102639.44;5051004;28;20366;-83
2023/05/18 08:11:16;;;;;;;8.52;3.88;;;;;;;17.40;41.90;102650.50;5033859;28;20115;-83
2023/05/18 08:13:42;;;;;;;9.48;4.63;;;;;;;17.36;41.08;102648.94;5052735;28;20037;-83
2023/05/18 08:16:07;;;;;;;11.25;4.70;;;;;;;17.73;40.65;102660.50;5048400;28;20029;-83
2023/05/18 08:18:33;;;;;;;8.50;3.92;;;;;;;17.49;40.15;102653.69;5053646;28;20024;-81
2023/05/18 08:21:01;;;;;;;9.63;4.15;;;;;;;17.42;40.22;102653.13;5053941;28;20704;-82
2023/05/18 08:23:26;;;;;;;8.10;4.20;;;;;;;17.68;40.11;102649.06;5058235;28;20238;-81
2023/05/18 08:25:51;;;;;;;10.70;4.35;;;;;;;17.85;38.94;102650.94;5054407;28;20512;-82
2023/05/18 08:28:17;;;;;;;9.13;4.82;;;;;;;18.17;38.42;102641.97;5055054;28;20067;-82
2023/05/18 08:30:42;;;;;;;9.77;3.97;;;;;;;18.50;37.95;102643.78;5044962;28;20082;-82
2023/05/18 08:33:08;;;;;;;6.38;3.97;;;;;;;18.87;36.82;102645.31;5057402;28;20451;-81
2023/05/18 08:35:33;;;;;;;9.05;3.95;;;;;;;18.50;36.03;102640.22;5057034;28;20596;-82
2023/05/18 08:37:59;;;;;;;8.63;4.07;;;;;;;18.59;37.26;102643.25;5050470;28;20032;-82
2023/05/18 08:40:41;;;;;;;9.80;4.18;;;;;;;19.50;37.07;102638.91;5064045;28;20032;-81
2023/05/18 08:43:17;;;;;;;10.77;4.65;;;;;;;19.96;35.59;102641.53;5061450;28;20090;-82
2023/05/18 08:45:51;;;;;;;11.60;4.15;;;;;;;20.58;34.30;102635.84;5059051;28;20043;-82
2023/05/18 08:48:16;;;;;;;;;;;;;;;22.05;34.98;102632.13;5051362;28;20050;-83
2023/05/18 08:50:43;;;;;;;7.60;3.40;;;;;;;21.16;33.31;102623.88;5062486;28;19916;-83
2023/05/18 08:53:10;;;;;;;9.88;3.80;;;;;;;21.63;31.13;102634.19;5034211;28;20075;-83
2023/05/18 08:55:36;;;;;;;9.13;3.40;;;;;;;21.41;31.09;102636.66;5045204;28;20021;-82
2023/05/18 08:58:03;;;;;;;9.45;3.92;;;;;;;20.45;32.13;102627.63;5043765;28;20159;-82
2023/05/18 09:00:29;;;;;;;9.32;3.63;;;;;;;21.22;32.00;102614.44;5058412;28;20163;-83
2023/05/18 09:02:55;;;;;;;8.35;3.80;;;;;;;21.90;30.62;102627.78;5057423;28;20431;-82
2023/05/18 09:05:22;;;;;;;6.65;3.30;;;;;;;21.03;30.65;102628.38;5041319;28;20029;-81
2023/05/18 09:07:49;;;;;;;9.32;4.13;;;;;;;20.26;32.13;102635.16;5050852;28;20473;-82
2023/05/18 09:10:15;;;;;;;11.70;4.00;;;;;;;21.24;31.59;102629.63;5052342;28;20056;-82
2023/05/18 09:12:42;;;;;;;9.43;3.78;;;;;;;21.99;29.47;102629.88;5036896;28;20146;-83
2023/05/18 09:15:10;;;;;;;10.20;3.78;;;;;;;22.39;28.92;102624.31;5058657;28;20028;-82
2023/05/18 09:17:35;;;;;;;8.95;3.83;;;;;;;23.02;28.00;102616.97;5057801;28;20112;-82
2023/05/18 09:20:04;;;;;;;8.27;3.63;;;;;;;23.04;27.38;102615.88;5055592;28;20099;-82
2023/05/18 09:22:30;;;;;;;15.40;4.63;;;;;;;23.45;27.07;102624.53;5055989;28;20111;-82
2023/05/18 09:24:55;;;;;;;7.97;3.55;;;;;;;24.44;26.44;102613.94;5062407;28;20087;-81
2023/05/18 09:27:21;;;;;;;8.48;3.63;;;;;;;23.74;26.36;102617.72;5042700;28;20085;-81
2023/05/18 09:29:56;;;;;;;8.98;3.95;;;;;;;22.61;29.30;102618.16;5056149;28;20033;-82
2023/05/18 09:32:23;;;;;;;10.80;3.83;;;;;;;21.67;29.19;102620.44;5054786;28;20093;-82
2023/05/18 09:34:48;;;;;;;7.03;3.78;;;;;;;20.38;30.70;102624.44;5055344;28;20310;-82
2023/05/18 09:37:18;;;;;;;8.70;3.83;;;;;;;21.14;30.52;102623.09;5057225;28;20060;-82
2023/05/18 09:39:44;;;;;;;7.97;3.47;;;;;;;23.16;28.60;102621.34;5040167;28;20205;-82
2023/05/18 09:42:11;;;;;;;7.93;3.70;;;;;;;23.44;26.85;102615.50;5042048;28;20063;-82
2023/05/18 09:44:36;;;;;;;8.25;4.22;;;;;;;22.03;28.19;102622.38;5059317;28;20159;-83
2023/05/18 09:47:07;;;;;;;8.00;3.97;;;;;;;20.20;31.21;102631.03;5056097;28;20496;-82
2023/05/18 09:49:32;;;;;;;9.82;4.00;;;;;;;20.23;31.62;102627.25;5055976;28;20121;-81
2023/05/18 09:52:00;;;;;;;9.90;3.75;;;;;;;20.58;31.16;102625.03;5034451;28;20376;-82
2023/05/18 09:54:26;;;;;;;8.38;4.07;;;;;;;21.78;29.15;102626.84;5057632;28;20038;-83
2023/05/18 09:56:51;;;;;;;7.38;3.75;;;;;;;21.74;29.25;102624.47;5051286;28;20032;-82
2023/05/18 09:59:17;;;;;;;7.70;3.97;;;;;;;22.66;28.58;102615.13;5055940;28;20023;-81
2023/05/18 10:02:00;;;;;;;8.55;4.13;;;;;;;23.71;27.62;102614.41;5053758;28;20036;-82
2023/05/18 10:04:39;;;;;;;10.55;4.05;;;;;;;22.83;28.55;102609.31;5059044;28;20024;-82
2023/05/18 10:07:11;;;;;;;7.13;3.83;;;;;;;21.94;29.23;102604.91;5055756;28;20032;-82
2023/05/18 10:09:42;;;;;;;8.70;3.57;;;;;;;22.64;28.79;102601.66;5041241;28;20127;-82
2023/05/18 10:12:11;;;;;;;7.47;3.85;;;;;;;22.76;27.52;102606.19;5047333;28;20291;-81
2023/05/18 10:14:36;;;;;;;8.60;4.00;;;;;;;23.22;26.86;102607.31;5043252;28;20040;-81
2023/05/18 10:17:03;;;;;;;8.65;3.50;;;;;;;23.47;26.50;102598.13;5046546;28;20020;-82
2023/05/18 10:19:33;;;;;;;8.23;4.10;;;;;;;22.93;26.90;102594.09;5047976;28;20120;-81
2023/05/18 10:22:01;;;;;;;8.88;3.90;;;;;;;21.49;28.23;102595.50;5052969;28;20477;-82
2023/05/18 10:24:28;;;;;;;8.68;4.00;;;;;;;20.46;30.96;102604.16;5045317;28;20030;-81
2023/05/18 10:26:59;;;;;;;10.13;4.10;;;;;;;21.53;29.75;102605.13;5058636;28;20040;-82
2023/05/18 10:29:25;;;;;;;10.00;3.92;;;;;;;22.95;28.40;102600.28;5042112;28;20465;-82
2023/05/18 10:31:52;;;;;;;8.98;4.25;;;;;;;24.45;25.33;102591.16;5041812;28;20115;-82
2023/05/18 10:34:19;;;;;;;7.32;4.00;;;;;;;25.69;24.14;102590.69;5041690;28;20373;-82
2023/05/18 10:36:44;;;;;;;9.73;3.47;;;;;;;25.80;23.77;102593.38;5047162;28;20535;-82
2023/05/18 10:39:10;;;;;;;7.65;3.55;;;;;;;26.44;22.96;102587.63;5053454;28;20060;-82
2023/05/18 10:41:38;;;;;;;10.25;3.80;;;;;;;26.03;22.99;102597.63;5043499;28;20479;-83
2023/05/18 10:44:05;;;;;;;8.77;4.00;;;;;;;25.54;23.58;102590.13;5043359;28;20036;-83
2023/05/18 10:46:32;;;;;;;7.30;3.65;;;;;;;26.14;23.77;102585.75;5046880;28;20538;-82
2023/05/18 10:48:59;;;;;;;12.40;4.57;;;;;;;26.43;23.32;102580.41;5052195;28;20033;-82
2023/05/18 10:51:25;;;;;;;8.00;4.00;;;;;;;26.21;23.21;102586.94;5043611;28;20044;-84
2023/05/18 10:53:52;;;;;;;6.05;3.45;;;;;;;24.85;24.54;102569.66;5055331;28;20487;-82
2023/05/18 10:56:17;;;;;;;7.40;3.60;;;;;;;24.51;25.13;102582.50;5033978;28;20029;-83
2023/05/18 10:58:45;;;;;;;6.43;3.42;;;;;;;24.26;24.89;102583.63;5051752;28;20112;-82
2023/05/18 11:01:12;;;;;;;12.18;4.05;;;;;;;23.63;25.07;102581.47;5046987;28;20029;-82
2023/05/18 11:03:39;;;;;;;9.23;3.75;;;;;;;23.04;26.22;102582.44;5041047;28;20481;-82
2023/05/18 11:06:13;;;;;;;8.60;3.55;;;;;;;23.47;27.25;102579.97;5045635;28;20021;-82
2023/05/18 11:08:48;;;;;;;8.27;3.92;;;;;;;24.24;25.99;102582.88;5030441;28;20030;-82
2023/05/18 11:11:15;;;;;;;7.63;3.50;;;;;;;25.47;23.74;102565.28;5038103;28;20734;-84
2023/05/18 11:13:47;;;;;;;7.68;3.70;;;;;;;26.67;23.03;102573.69;5051951;28;20021;-83
2023/05/18 11:16:14;;;;;;;7.80;3.90;;;;;;;27.21;22.27;102573.19;5050152;28;20043;-83
2023/05/18 11:18:45;;;;;;;7.10;3.40;;;;;;;27.53;21.17;102569.25;5050922;28;20078;-84
2023/05/18 11:21:34;;;;;;;7.20;3.30;;;;;;;28.30;21.63;102566.25;5051235;28;20020;-84
2023/05/18 11:24:19;;;;;;;8.27;3.47;;;;;;;28.30;22.24;102568.97;5044790;28;20032;-82
2023/05/18 11:26:48;;;;;;;7.60;3.85;;;;;;;28.33;21.29;102566.94;5047960;28;20024;-83